Time;durP1;ratioP1;P1;durP2;ratioP2;P2;SDS_P1;SDS_P2;PMS_P1;PMS_P2;Temp;Humidity;BMP_temperature;BMP_pressure;BME280_temperature;BME280_humidity;BME280_pressure;Samples;Min_cycle;Max_cycle;Signal;HPM_P1;HPM_P2
2022/10/14 00:01:21;;;;;;;;;;;;;;;13.62;62.69;100191.91;4989401;28;19921;-90
2022/10/14 00:03:47;;;;;;;;;;;;;;;13.64;62.63;100182.16;4972492;28;19929;-88
2022/10/14 00:06:14;;;;;;;;;;;;;;;13.61;61.77;100184.88;4988898;28;19917;-89
2022/10/14 00:08:40;;;;;;;;;;;;;;;13.53;62.57;100189.44;4989944;28;20726;-89
2022/10/14 00:11:06;;;;;;;;;;;;;;;13.59;62.65;100189.31;4990250;28;19914;-90
2022/10/14 00:13:32;;;;;;;;;;;;;;;13.58;62.64;100182.28;4990101;28;20305;-90
2022/10/14 00:15:58;;;;;;;;;;;;;;;13.55;61.94;100185.84;4988558;28;19914;-90
2022/10/14 00:18:23;;;;;;;;;;;;;;;13.55;62.34;100177.03;4987767;28;19917;-90
2022/10/14 00:20:55;;;;;;;;;;;;;;;13.52;62.23;100172.66;4987867;28;19918;-90
2022/10/14 00:23:20;;;;;;;;;;;;;;;13.54;62.28;100172.63;4988775;28;19918;-90
2022/10/14 00:25:45;;;;;;;;;;;;;;;13.46;62.24;100171.91;4970235;28;20387;-89
2022/10/14 00:28:11;;;;;;;;;;;;;;;13.39;62.59;100173.78;4984882;28;19917;-90
2022/10/14 00:30:36;;;;;;;;;;;;;;;13.32;63.12;100166.84;4991791;28;19917;-90
2022/10/14 00:33:01;;;;;;;;;;;;;;;13.38;63.15;100167.63;4991640;28;19925;-90
2022/10/14 00:35:27;;;;;;;;;;;;;;;13.35;62.68;100172.13;4990791;28;19922;-90
2022/10/14 00:37:52;;;;;;;;;;;;;;;13.38;62.80;100170.28;4993317;28;20356;-89
2022/10/14 00:40:17;;;;;;;;;;;;;;;13.41;62.63;100161.41;4994319;28;20392;-89
2022/10/14 00:42:43;;;;;;;;;;;;;;;13.37;62.85;100176.47;4994325;28;20327;-89
2022/10/14 00:45:19;;;;;;;;;;;;;;;13.38;63.01;100162.31;4977293;28;19952;-89
2022/10/14 00:47:45;;;;;;;;;;;;;;;13.36;62.43;100171.19;4995069;28;19922;-89
2022/10/14 00:50:11;;;;;;;;;;;;;;;13.36;62.93;100171.19;4994471;28;19918;-88
2022/10/14 00:52:37;;;;;;;;;;;;;;;13.35;63.04;100161.53;4976672;28;19984;-90
2022/10/14 00:55:05;;;;;;;;;;;;;;;13.39;63.22;100164.09;4994142;28;19914;-90
2022/10/14 00:57:31;;;;;;;;;;;;;;;13.35;63.41;100165.03;4993970;28;19918;-91
2022/10/14 01:00:00;;;;;;;;;;;;;;;13.33;63.82;100161.56;4992104;28;19968;-89
2022/10/14 01:02:25;;;;;;;;;;;;;;;13.40;63.74;100171.09;5006858;28;19909;-91
2022/10/14 01:04:52;;;;;;;;;;;;;;;13.31;63.43;100151.84;5014233;28;19985;-85
2022/10/14 01:07:33;;;;;;;;;;;;;;;13.38;63.27;100166.75;5012773;28;19913;-93
2022/10/14 01:10:08;;;;;;;;;;;;;;;13.37;63.35;100159.72;4994455;28;19925;-91
2022/10/14 01:12:43;;;;;;;;;;;;;;;13.33;63.70;100160.63;4992613;28;19924;-90
2022/10/14 01:15:27;;;;;;;;;;;;;;;13.33;64.04;100166.84;4992246;28;19945;-90
2022/10/14 01:18:06;;;;;;;;;;;;;;;13.34;63.93;100163.28;4973949;28;20373;-90
2022/10/14 01:20:32;;;;;;;;;;;;;;;13.32;63.34;100161.53;4991175;28;19920;-90
2022/10/14 01:23:08;;;;;;;;;;;;;;;13.32;63.66;100162.41;4991695;28;19917;-88
2022/10/14 01:25:37;;;;;;;;;;;;;;;13.28;64.33;100154.56;4992329;28;19914;-89
2022/10/14 01:28:02;;;;;;;;;;;;;;;13.23;64.28;100157.28;4992943;28;19918;-90
2022/10/14 01:30:31;;;;;;;;;;;;;;;13.23;64.52;100151.97;4992712;28;19925;-89
2022/10/14 01:33:08;;;;;;;;;;;;;;;13.28;64.17;100151.91;4976342;28;20004;-89
2022/10/14 01:35:49;;;;;;;;;;;;;;;13.30;64.26;100156.28;4992530;28;20331;-91
2022/10/14 01:38:35;;;;;;;;;;;;;;;13.28;64.40;100151.91;4992131;28;19925;-89
2022/10/14 01:41:07;;;;;;;;;;;;;;;13.30;64.71;100144.78;4996110;28;19955;-92
2022/10/14 01:43:33;;;;;;;;;;;;;;;13.32;64.07;100145.66;5013847;28;19981;-89
2022/10/14 01:46:10;;;;;;;;;;;;;;;13.43;64.41;100141.03;4997946;28;19918;-87
2022/10/14 01:48:37;;;;;;;;;;;;;;;13.40;64.74;100135.81;4971596;28;19918;-90
2022/10/14 01:51:06;;;;;;;;;;;;;;;13.43;64.50;100122.50;4970435;28;20415;-91
2022/10/14 01:53:34;;;;;;;;;;;;;;;13.39;64.37;100126.09;4971602;28;19914;-90
2022/10/14 01:56:00;;;;;;;;;;;;;;;13.35;65.68;100127.94;4973508;28;19932;-90
2022/10/14 01:58:27;;;;;;;;;;;;;;;13.39;64.85;100124.34;4989871;28;19972;-91
2022/10/14 02:00:53;;;;;;;;;;;;;;;13.26;65.28;100120.13;4989675;28;19917;-91
2022/10/14 02:03:19;;;;;;;;;;;;;;;13.28;65.11;100122.75;4988108;28;20728;-91
2022/10/14 02:06:00;;;;;;;;;;;;;;;13.32;65.22;100122.66;4990800;28;19924;-89
2022/10/14 02:08:47;;;;;;;;;;;;;;;13.33;65.37;100131.47;4991213;28;19928;-88
2022/10/14 02:11:16;;;;;;;;;;;;;;;13.32;65.42;100130.63;4991972;28;19918;-90
2022/10/14 02:13:51;;;;;;;;;;;;;;;13.35;65.27;100124.44;4991343;28;20300;-89
2022/10/14 02:16:30;;;;;;;;;;;;;;;13.40;65.01;100122.56;4991615;28;19913;-89
2022/10/14 02:19:08;;;;;;;;;;;;;;;13.46;65.84;100125.09;4990491;28;19917;-89
2022/10/14 02:21:42;;;;;;;;;;;;;;;13.45;65.57;100122.47;4991093;28;20413;-90
2022/10/14 02:24:13;;;;;;;;;;;;;;;13.48;65.46;100122.41;4990866;28;20048;-89
2022/10/14 02:26:39;;;;;;;;;;;;;;;13.53;65.33;100123.16;4991694;28;19917;-90
2022/10/14 02:29:06;;;;;;;;;;;;;;;13.59;65.43;100120.41;4990396;28;19929;-89
2022/10/14 02:31:33;;;;;;;;;;;;;;;13.62;64.88;100122.97;4991132;28;19921;-90
2022/10/14 02:34:01;;;;;;;;;;;;;;;13.52;65.02;100113.50;4991116;28;19913;-88
2022/10/14 02:36:27;;;;;;;;;;;;;;;13.52;65.89;100118.78;4973668;28;19918;-89
2022/10/14 02:38:54;;;;;;;;;;;;;;;13.57;65.58;100124.88;4991881;28;19917;-88
2022/10/14 02:41:22;;;;;;;;;;;;;;;13.59;65.53;100128.34;4990802;28;19964;-89
2022/10/14 02:43:47;;;;;;;;;;;;;;;13.64;65.86;100128.25;4990029;28;19913;-88
2022/10/14 02:46:12;;;;;;;;;;;;;;;13.54;65.70;100125.78;4991786;28;20307;-88
2022/10/14 02:48:38;;;;;;;;;;;;;;;13.58;66.14;100121.31;4990407;28;20372;-88
2022/10/14 02:51:03;;;;;;;;;;;;;;;13.55;65.49;100118.72;4989463;28;19944;-89
2022/10/14 02:53:29;;;;;;;;;;;;;;;13.56;65.36;100117.81;4971588;28;19925;-90
2022/10/14 02:55:55;;;;;;;;;;;;;;;13.50;65.96;100116.19;4970845;28;19921;-90
2022/10/14 02:58:21;;;;;;;;;;;;;;;13.49;65.99;100117.06;4988288;28;20020;-90
2022/10/14 03:00:50;;;;;;;;;;;;;;;13.31;66.48;100120.91;4995121;28;19976;-89
2022/10/14 03:03:15;;;;;;;;;;;;;;;13.36;66.83;100129.69;4988730;28;19949;-90
2022/10/14 03:05:41;;;;;;;;;;;;;;;13.34;67.19;100125.31;4989065;28;20380;-89
2022/10/14 03:08:06;;;;;;;;;;;;;;;13.44;66.37;100124.25;4990161;28;19968;-94
2022/10/14 03:10:32;;;;;;;;;;;;;;;13.39;66.48;100123.44;4989937;28;19918;-87
2022/10/14 03:12:57;;;;;;;;;;;;;;;13.40;66.45;100112.81;4991343;28;20360;-87
2022/10/14 03:15:23;;;;;;;;;;;;;;;13.41;66.48;100111.06;4991037;28;19917;-88
2022/10/14 03:17:49;;;;;;;;;;;;;;;13.48;65.99;100111.78;4991724;28;19968;-88
2022/10/14 03:20:14;;;;;;;;;;;;;;;13.28;66.42;100113.03;4990688;28;19914;-89
2022/10/14 03:22:40;;;;;;;;;;;;;;;13.32;66.14;100106.78;4988884;28;19928;-87
2022/10/14 03:25:06;;;;;;;;;;;;;;;13.10;66.44;100108.97;4996482;28;20395;-88
2022/10/14 03:27:31;;;;;;;;;;;;;;;13.02;66.63;100114.41;4998374;28;19929;-88
2022/10/14 03:29:57;;;;;;;;;;;;;;;13.05;66.38;100108.16;4990550;28;19914;-89
2022/10/14 03:32:24;;;;;;;;;;;;;;;12.95;66.87;100096.00;4979144;28;19922;-95
2022/10/14 03:34:49;;;;;;;;;;;;;;;12.68;67.30;100101.78;4953905;28;19920;-91
2022/10/14 03:37:14;;;;;;;;;;;;;;;12.84;66.89;100101.50;4971220;28;20700;-88
2022/10/14 03:39:39;;;;;;;;;;;;;;;12.78;67.40;100094.53;4971196;28;19914;-88
2022/10/14 03:42:05;;;;;;;;;;;;;;;12.80;67.44;100098.00;4974823;28;19921;-90
2022/10/14 03:44:31;;;;;;;;;;;;;;;12.86;67.14;100095.25;4991101;28;20357;-89
2022/10/14 03:46:56;;;;;;;;;;;;;;;12.98;66.97;100094.16;4990640;28;20454;-90
2022/10/14 03:49:22;;;;;;;;;;;;;;;12.98;66.96;100093.31;4955397;28;19925;-92
2022/10/14 03:51:47;;;;;;;;;;;;;;;12.98;67.14;100088.00;4967424;28;19922;-91
2022/10/14 03:54:12;;;;;;;;;;;;;;;12.88;66.66;100085.53;4987997;28;19928;-90
2022/10/14 03:56:39;;;;;;;;;;;;;;;12.77;67.07;100084.84;4989730;28;19913;-92
2022/10/14 03:59:33;;;;;;;;;;;;;;;12.76;67.38;100080.47;4998900;28;19913;-96
2022/10/14 04:02:00;;;;;;;;;;;;;;;12.80;67.41;100081.28;4992566;28;19985;-95
2022/10/14 04:04:27;;;;;;;;;;;;;;;12.89;67.57;100087.25;4966459;28;20393;-95
2022/10/14 04:06:53;;;;;;;;;;;;;;;12.95;66.79;100090.72;4978059;28;19921;-93
2022/10/14 04:09:19;;;;;;;;;;;;;;;13.03;67.10;100088.78;4996117;28;20013;-94
2022/10/14 04:11:44;;;;;;;;;;;;;;;12.95;66.88;100083.63;4995487;28;19926;-96
2022/10/14 04:14:10;;;;;;;;;;;;;;;12.92;66.96;100090.78;4977881;28;20388;-91
2022/10/14 04:16:35;;;;;;;;;;;;;;;12.83;67.71;100084.72;4994743;28;20312;-90
2022/10/14 04:19:01;;;;;;;;;;;;;;;12.77;67.80;100091.91;4976345;28;19972;-90
2022/10/14 04:24:05;;;;;;;;;;;;;;;12.78;68.55;100078.66;5202085;23;19922;-96
2022/10/14 04:26:30;;;;;;;;;;;;;;;12.85;68.15;100082.94;4989195;28;19917;-93
2022/10/14 04:28:55;;;;;;;;;;;;;;;12.88;67.99;100089.94;4993336;28;19925;-93
2022/10/14 04:31:21;;;;;;;;;;;;;;;12.64;68.88;100086.84;4970526;28;19918;-91
2022/10/14 04:33:47;;;;;;;;;;;;;;;12.64;68.90;100086.84;4989790;28;19922;-94
2022/10/14 04:36:15;;;;;;;;;;;;;;;12.70;68.54;100084.09;4973931;28;19932;-91
2022/10/14 04:38:53;;;;;;;;;;;;;;;12.80;67.95;100086.56;4992519;28;19939;-95
2022/10/14 04:41:18;;;;;;;;;;;;;;;12.75;68.12;100084.00;4975756;28;20390;-91
2022/10/14 04:43:46;;;;;;;;;;;;;;;12.86;68.27;100082.03;4976623;28;20008;-89
2022/10/14 04:49:42;;;;;;;;;;;;;;;13.10;67.29;100087.78;4973784;28;19920;-95
2022/10/14 04:52:22;;;;;;;;;;;;;;;13.10;67.30;100087.78;4986468;28;19941;-95
2022/10/14 04:54:47;;;;;;;;;;;;;;;13.17;67.40;100093.81;4961624;28;19914;-93
2022/10/14 04:57:15;;;;;;;;;;;;;;;13.08;66.93;100086.91;4991347;28;20403;-93
2022/10/14 04:59:43;;;;;;;;;;;;;;;13.10;66.87;100092.19;4992947;28;20699;-95
2022/10/14 05:02:26;;;;;;;;;;;;;;;13.16;66.71;100089.41;4993687;28;20004;-93
2022/10/14 05:04:52;;;;;;;;;;;;;;;13.23;66.45;100091.06;4981018;28;20017;-94
2022/10/14 05:07:28;;;;;;;;;;;;;;;13.29;66.28;100098.88;4993779;28;19925;-96
2022/10/14 05:09:56;;;;;;;;;;;;;;;13.34;66.20;100093.53;5003053;28;19933;-95
2022/10/14 05:12:27;;;;;;;;;;;;;;;13.50;65.45;100080.81;4972322;28;19914;-96
2022/10/14 05:14:53;;;;;;;;;;;;;;;13.58;65.63;100089.50;5012640;23;19934;-92
2022/10/14 05:17:19;;;;;;;;;;;;;;;13.67;65.11;100089.31;4968178;28;20377;-91
2022/10/14 05:19:45;;;;;;;;;;;;;;;13.68;64.69;100093.69;4953354;28;20741;-93
2022/10/14 05:22:10;;;;;;;;;;;;;;;13.71;65.08;100088.31;4954770;28;19934;-93
2022/10/14 05:24:35;;;;;;;;;;;;;;;13.73;66.10;100091.84;4943046;28;19923;-91
2022/10/14 05:27:03;;;;;;;;;;;;;;;13.91;66.75;100084.38;4938720;28;19922;-91
2022/10/14 05:29:28;;;;;;;;;;;;;;;14.03;65.78;100089.41;4951698;28;19925;-91
2022/10/14 05:31:54;;;;;;;;;;;;;;;14.15;65.03;100086.47;4951749;29;19972;-92
2022/10/14 05:34:19;;;;;;;;;;;;;;;14.35;64.23;100097.50;4966433;28;20013;-92
2022/10/14 05:36:46;;;;;;;;;;;;;;;14.59;63.51;100098.69;4943332;28;20035;-92
2022/10/14 05:39:12;;;;;;;;;;;;;;;14.66;63.43;100098.53;4950518;28;19922;-92
2022/10/14 05:41:38;;;;;;;;;;;;;;;14.82;63.02;100095.47;4950476;28;19961;-92
2022/10/14 05:44:03;;;;;;;;;;;;;;;14.82;62.60;100090.16;4947185;28;20697;-92
2022/10/14 05:46:29;;;;;;;;;;;;;;;15.03;62.71;100088.75;4943626;28;19989;-92
2022/10/14 05:48:55;;;;;;;;;;;;;;;14.97;62.56;100089.75;4965705;28;19918;-92
2022/10/14 05:51:21;;;;;;;;;;;;;;;14.86;62.94;100091.84;4949147;28;19922;-93
2022/10/14 05:53:47;;;;;;;;;;;;;;;15.12;62.72;100084.94;4947844;29;20356;-93
2022/10/14 05:56:14;;;;;;;;;;;;;;;15.18;62.01;100083.00;4933965;29;19961;-94
2022/10/14 05:58:40;;;;;;;;;;;;;;;15.15;62.23;100090.16;4947653;28;19922;-92
2022/10/14 06:01:07;;;;;;;;;;;;;;;15.43;61.27;100092.03;4950325;28;19918;-92
2022/10/14 06:03:34;;;;;;;;;;;;;;;15.57;62.05;100087.22;4950554;28;20317;-92
2022/10/14 06:06:00;;;;;;;;;;;;;;;15.96;61.08;100092.28;4947940;29;20001;-92
2022/10/14 06:08:26;;;;;;;;;;;;;;;16.33;59.22;100091.13;4932860;29;20751;-93
2022/10/14 06:10:56;;;;;;;;;;;;;;;16.67;58.30;100086.44;4938392;29;19914;-92
2022/10/14 06:13:22;;;;;;;;;;;;;;;16.85;57.55;100090.28;4952785;28;20012;-92
2022/10/14 06:15:48;;;;;;;;;;;;;;;17.17;56.02;100094.50;4951017;29;20016;-93
2022/10/14 06:18:13;;;;;;;;;;;;;;;17.54;55.39;100093.16;4967897;28;19957;-94
2022/10/14 06:20:39;;;;;;;;;;;;;;;17.55;55.32;100092.25;4952917;28;19918;-93
2022/10/14 06:23:05;;;;;;;;;;;;;;;17.62;55.04;100091.06;4935784;29;20016;-93
2022/10/14 06:25:31;;;;;;;;;;;;;;;17.75;54.08;100088.81;4954175;29;20006;-93
2022/10/14 06:28:03;;;;;;;;;;;;;;;17.92;53.69;100089.97;4966126;28;19922;-91
2022/10/14 06:30:29;;;;;;;;;;;;;;;18.00;54.14;100086.09;4964313;29;19918;-91
2022/10/14 06:32:57;;;;;;;;;;;;;;;18.07;53.09;100090.28;4967451;28;19918;-95
2022/10/14 06:35:25;;;;;;;;;;;;;;;17.34;56.36;100089.44;4971453;28;19970;-92
2022/10/14 06:37:56;;;;;;;;;;;;;;;18.04;54.08;100097.50;4974181;28;19918;-94
2022/10/14 06:40:23;;;;;;;;;;;;;;;17.70;54.21;100098.78;4971778;29;19919;-90
2022/10/14 06:42:49;;;;;;;;;;;;;;;17.40;55.16;100095.50;4963171;29;19960;-93
2022/10/14 06:45:16;;;;;;;;;;;;;;;17.61;54.76;100097.34;4951493;28;20368;-91
2022/10/14 06:47:42;;;;;;;;;;;;;;;17.20;55.55;100098.88;4949090;29;19922;-92
2022/10/14 06:50:07;;;;;;;;;;;;;;;17.21;55.88;100096.16;4950449;29;19914;-91
2022/10/14 06:52:33;;;;;;;;;;;;;;;17.25;55.94;100095.09;4951148;29;19918;-93
2022/10/14 06:55:04;;;;;;;;;;;;;;;17.36;56.09;100097.38;4959533;29;19965;-93
2022/10/14 06:57:29;;;;;;;;;;;;;;;17.34;55.73;100097.44;4978699;28;20461;-92
2022/10/14 06:59:55;;;;;;;;;;;;;;;17.63;56.17;100103.50;4964269;29;19946;-93
2022/10/14 07:02:26;;;;;;;;;;;;;;;17.67;54.69;100101.56;4963535;29;19941;-92
2022/10/14 07:04:52;;;;;;;;;;;;;;;17.78;54.90;100103.81;4964531;29;19918;-92
2022/10/14 07:07:18;;;;;;;;;;;;;;;17.51;55.62;100102.13;4964078;29;19930;-92
2022/10/14 07:09:47;;;;;;;;;;;;;;;17.34;55.32;100107.22;4963198;29;19952;-92
2022/10/14 07:12:13;;;;;;;;;;;;;;;17.53;54.84;100104.75;4976089;28;19915;-93
2022/10/14 07:14:39;;;;;;;;;;;;;;;17.45;55.34;100101.50;4958207;28;20321;-92
2022/10/14 07:17:06;;;;;;;;;;;;;;;17.32;55.38;100095.75;4955968;29;19915;-91
2022/10/14 07:19:33;;;;;;;;;;;;;;;17.40;55.74;100096.34;4968314;28;19925;-93
2022/10/14 07:21:59;;;;;;;;;;;;;;;17.22;56.06;100103.19;4967906;28;20348;-93
2022/10/14 07:24:25;;;;;;;;;;;;;;;17.45;55.77;100097.03;4968090;28;20009;-92
2022/10/14 07:26:53;;;;;;;;;;;;;;;17.59;55.52;100101.00;4954093;28;19958;-93
2022/10/14 07:29:20;;;;;;;;;;;;;;;17.53;55.60;100096.75;4953010;28;19976;-91
2022/10/14 07:31:46;;;;;;;;;;;;;;;17.85;54.60;100092.00;4952898;29;19962;-92
2022/10/14 07:34:12;;;;;;;;;;;;;;;17.88;54.07;100098.09;4969528;28;19930;-92
2022/10/14 07:36:39;;;;;;;;;;;;;;;17.97;54.34;100090.69;4956794;29;19918;-92
2022/10/14 07:39:05;;;;;;;;;;;;;;;17.80;54.60;100093.97;4956268;29;20417;-91
2022/10/14 07:41:31;;;;;;;;;;;;;;;17.94;54.43;100088.16;4955453;29;19915;-92
2022/10/14 07:44:02;;;;;;;;;;;;;;;17.95;54.27;100089.88;4955713;29;19985;-93
2022/10/14 07:46:30;;;;;;;;;;;;;;;18.08;54.38;100083.97;4954873;29;19976;-92
2022/10/14 07:48:57;;;;;;;;;;;;;;;18.36;53.47;100085.53;4954860;29;19922;-92
2022/10/14 07:51:23;;;;;;;;;;;;;;;18.25;53.40;100087.78;4970670;28;19918;-93
2022/10/14 07:53:51;;;;;;;;;;;;;;;18.45;53.11;100080.78;4954079;29;19965;-93
2022/10/14 07:56:26;;;;;;;;;;;;;;;18.51;53.41;100091.19;4954904;29;19960;-94
2022/10/14 07:58:57;;;;;;;;;;;;;;;18.48;52.90;100089.50;4955724;28;19922;-92
2022/10/14 08:01:28;;;;;;;;;;;;;;;18.45;52.73;100094.13;4954392;28;20405;-93
2022/10/14 08:04:17;;;;;;;;;;;;;;;18.47;53.03;100093.09;4954598;28;19915;-93
2022/10/14 08:06:45;;;;;;;;;;;;;;;18.48;53.01;100088.66;4954583;28;20430;-93
2022/10/14 08:09:14;;;;;;;;;;;;;;;18.65;53.02;100080.78;4969809;28;20794;-93
2022/10/14 08:11:43;;;;;;;;;;;;;;;18.72;52.01;100078.72;4954525;28;20033;-92
2022/10/14 08:14:10;;;;;;;;;;;;;;;19.32;50.96;100079.69;4953870;28;20033;-93
2022/10/14 08:19:41;;;;;;;;;;;;;;;19.80;49.13;100074.84;4953644;29;20368;-92
2022/10/14 08:22:08;;;;;;;;;;;;;;;19.59;49.75;100081.19;4952307;29;19922;-92
2022/10/14 08:24:37;;;;;;;;;;;;;;;19.85;49.15;100080.00;4953216;28;19914;-92
2022/10/14 08:27:05;;;;;;;;;;;;;;;19.61;50.18;100076.59;4971510;28;20013;-93
2022/10/14 08:32:34;;;;;;;;;;;;;;;19.47;50.38;100075.44;4958568;29;19921;-91
2022/10/14 08:35:01;;;;;;;;;;;;;;;19.93;49.53;100076.94;4955946;29;20308;-92
2022/10/14 08:37:32;;;;;;;;;;;;;;;20.00;49.04;100071.22;4970046;28;19933;-93
2022/10/14 08:39:57;;;;;;;;;;;;;;;19.78;49.73;100071.38;4954430;28;20468;-92
2022/10/14 08:42:39;;;;;;;;;;;;;;;19.76;49.01;100067.88;4959445;28;19914;-94
2022/10/14 08:45:16;;;;;;;;;;;;;;;19.35;51.70;100070.63;4974882;28;20014;-94
2022/10/14 08:47:45;;;;;;;;;;;;;;;19.63;50.29;100074.72;4981859;28;19911;-94
2022/10/14 08:50:22;;;;;;;;;;;;;;;19.57;49.90;100065.19;4994854;28;19918;-94
2022/10/14 08:52:55;;;;;;;;;;;;;;;19.55;49.85;100063.50;4961386;28;19995;-94
2022/10/14 08:55:21;;;;;;;;;;;;;;;19.84;49.18;100063.03;4956305;28;19925;-93
2022/10/14 08:57:50;;;;;;;;;;;;;;;19.99;48.49;100071.31;4955050;28;19914;-93
2022/10/14 09:00:17;;;;;;;;;;;;;;;20.11;48.09;100067.13;4967813;28;20420;-89
2022/10/14 09:02:46;;;;;;;;;;;;;;;20.21;49.10;100071.97;4981004;28;20063;-91
2022/10/14 09:05:24;;;;;;;;;;;;;;;20.37;48.94;100069.44;4955118;28;19918;-93
2022/10/14 09:07:53;;;;;;;;;;;;;;;20.16;48.38;100065.97;4957617;28;20325;-95
2022/10/14 09:10:30;;;;;;;;;;;;;;;19.97;48.44;100063.34;4970585;28;19929;-94
2022/10/14 09:12:58;;;;;;;;;;;;;;;20.25;47.96;100066.47;4955055;28;19918;-95
2022/10/14 09:15:32;;;;;;;;;;;;;;;20.15;47.89;100069.59;4981596;28;19918;-92
2022/10/14 09:18:19;;;;;;;;;;;;;;;19.80;49.41;100066.81;4953016;29;19926;-92
2022/10/14 09:20:45;;;;;;;;;;;;;;;19.54;49.73;100068.00;4950017;28;19922;-92
2022/10/14 09:23:11;;;;;;;;;;;;;;;19.66;49.39;100059.41;4963262;28;20369;-91
2022/10/14 09:25:39;;;;;;;;;;;;;;;19.82;48.88;100059.56;4963760;28;19960;-92
2022/10/14 09:28:08;;;;;;;;;;;;;;;20.00;49.70;100059.63;4953867;28;19914;-94
2022/10/14 09:30:37;;;;;;;;;;;;;;;20.38;47.72;100057.75;4966326;28;19918;-92
2022/10/14 09:33:04;;;;;;;;;;;;;;;20.03;47.78;100062.16;4943872;28;19918;-93
2022/10/14 09:35:32;;;;;;;;;;;;;;;19.99;47.80;100052.56;4952794;28;19918;-91
2022/10/14 09:38:03;;;;;;;;;;;;;;;20.31;46.93;100058.13;4952961;29;20018;-90
2022/10/14 09:40:32;;;;;;;;;;;;;;;19.83;47.87;100053.28;4951538;28;19964;-91
2022/10/14 09:42:58;;;;;;;;;;;;;;;19.49;47.62;100049.50;4966463;28;19922;-91
2022/10/14 09:45:25;;;;;;;;;;;;;;;20.20;47.38;100046.16;4950986;28;19965;-91
2022/10/14 09:47:59;;;;;;;;;;;;;;;19.94;46.99;100044.75;4951907;28;20452;-89
2022/10/14 09:50:26;;;;;;;;;;;;;;;19.79;48.29;100043.66;4969411;28;19922;-91
2022/10/14 09:53:00;;;;;;;;;;;;;;;19.99;46.76;100047.19;4969301;28;19918;-90
2022/10/14 09:55:26;;;;;;;;;;;;;;;20.31;46.76;100036.69;4970692;28;19914;-91
2022/10/14 09:58:07;;;;;;;;;;;;;;;20.62;46.50;100036.03;4970374;28;19918;-91
2022/10/14 10:00:34;;;;;;;;;;;;;;;20.85;46.24;100044.72;4972996;28;20000;-90
2022/10/14 10:03:00;;;;;;;;;;;;;;;21.09;44.37;100037.19;4973252;28;19917;-94
2022/10/14 10:05:28;;;;;;;;;;;;;;;20.67;43.52;100042.03;4987813;28;20421;-90
2022/10/14 10:08:29;;;;;;;;;;;;;;;20.59;44.21;100038.88;4973198;28;19921;-92
2022/10/14 10:11:05;;;;;;;;;;;;;;;20.78;44.88;100033.44;4915779;29;20305;-91
2022/10/14 10:13:32;;;;;;;;;;;;;;;20.84;43.92;100029.59;4967578;28;19918;-91
2022/10/14 10:15:59;;;;;;;;;;;;;;;21.10;43.78;100026.41;4974065;28;19969;-92
2022/10/14 10:18:29;;;;;;;;;;;;;;;21.08;43.14;100027.41;4955604;28;20368;-93
2022/10/14 10:21:24;;;;;;;;;;;;;;;21.11;43.79;100022.75;4972646;28;20455;-91
2022/10/14 10:23:57;;;;;;;;;;;;;;;21.10;42.51;100023.72;4964243;28;19988;-92
2022/10/14 10:26:25;;;;;;;;;;;;;;;21.34;42.35;100017.09;4971763;28;19914;-91
2022/10/14 10:29:01;;;;;;;;;;;;;;;21.11;40.19;100012.00;4972031;28;19922;-95
2022/10/14 10:31:45;;;;;;;;;;;;;;;21.38;40.03;100011.47;4977355;28;19914;-95
2022/10/14 10:34:12;;;;;;;;;;;;;;;21.48;39.39;100008.28;4973842;28;20278;-93
2022/10/14 10:36:54;;;;;;;;;;;;;;;21.02;41.28;100001.81;4972176;28;19972;-95
2022/10/14 10:39:25;;;;;;;;;;;;;;;21.01;41.83;99996.53;4960034;28;20028;-92
2022/10/14 10:42:11;;;;;;;;;;;;;;;21.01;41.90;99993.84;4950950;29;20387;-93
2022/10/14 10:44:43;;;;;;;;;;;;;;;21.17;40.95;99993.88;4949270;28;19914;-93
2022/10/14 10:47:16;;;;;;;;;;;;;;;21.39;41.23;99990.88;4951288;29;20009;-94
2022/10/14 10:49:41;;;;;;;;;;;;;;;21.31;41.50;99991.28;4966304;28;19914;-96
2022/10/14 10:52:15;;;;;;;;;;;;;;;21.53;41.29;99990.13;4968082;28;20057;-95
2022/10/14 10:55:01;;;;;;;;;;;;;;;21.52;40.08;99985.72;4952658;28;19922;-96
2022/10/14 10:57:30;;;;;;;;;;;;;;;21.31;40.59;99980.56;4954319;28;20294;-94
2022/10/14 11:00:05;;;;;;;;;;;;;;;21.44;39.30;99975.38;4966437;28;19914;-94
2022/10/14 11:02:33;;;;;;;;;;;;;;;21.66;38.57;99971.53;4950381;28;19976;-95
2022/10/14 11:05:07;;;;;;;;;;;;;;;21.45;39.14;99964.56;4950689;29;19918;-94
2022/10/14 11:13:32;;;;;;;;;;;;;;;21.80;38.58;99952.81;4951189;29;19922;-95
2022/10/14 11:16:03;;;;;;;;;;;;;;;21.72;38.22;99958.63;4965946;28;19923;-94
2022/10/14 11:18:44;;;;;;;;;;;;;;;21.66;38.71;99952.72;4949772;28;19914;-94
2022/10/14 11:21:30;;;;;;;;;;;;;;;21.40;39.68;99947.00;4949699;29;20527;-94
2022/10/14 11:24:09;;;;;;;;;;;;;;;21.30;39.54;99943.94;4950984;29;19918;-93
2022/10/14 11:26:54;;;;;;;;;;;;;;;21.51;38.94;99935.69;4951572;29;19977;-93
2022/10/14 11:29:26;;;;;;;;;;;;;;;21.50;39.95;99929.44;4964870;28;19961;-93
2022/10/14 11:32:02;;;;;;;;;;;;;;;20.93;41.10;99930.75;4950165;29;20389;-93
2022/10/14 11:34:43;;;;;;;;;;;;;;;20.64;42.08;99931.44;4950467;29;20009;-93
2022/10/14 11:37:11;;;;;;;;;;;;;;;20.63;42.05;99925.19;4965178;28;20712;-93
2022/10/14 11:39:47;;;;;;;;;;;;;;;20.58;41.79;99919.22;4950841;29;19914;-94
2022/10/14 11:42:15;;;;;;;;;;;;;;;20.36;41.38;99922.16;4950200;28;19954;-93
2022/10/14 11:44:41;;;;;;;;;;;;;;;19.97;42.04;99923.25;4951876;29;19914;-93
2022/10/14 11:47:36;;;;;;;;;;;;;;;20.12;41.81;99908.22;4951649;29;20041;-93
2022/10/14 11:50:14;;;;;;;;;;;;;;;20.15;41.06;99908.06;4954756;28;19919;-93
2022/10/14 11:52:48;;;;;;;;;;;;;;;20.24;42.11;99912.09;4950749;29;20005;-91
2022/10/14 11:55:22;;;;;;;;;;;;;;;20.20;42.80;99906.00;4952918;29;20412;-92
2022/10/14 11:57:52;;;;;;;;;;;;;;;20.31;43.07;99908.13;4956029;29;20273;-92
2022/10/14 12:03:09;;;;;;;;;;;;;;;20.44;41.26;99897.66;4969493;29;19950;-93
2022/10/14 12:05:46;;;;;;;;;;;;;;;20.36;41.43;99895.38;4965174;29;19919;-91
2022/10/14 12:08:19;;;;;;;;;;;;;;;20.23;42.12;99896.94;4968489;28;19925;-92
2022/10/14 12:10:46;;;;;;;;;;;;;;;20.26;43.29;99886.94;4987941;28;20418;-92
2022/10/14 12:13:25;;;;;;;;;;;;;;;20.74;40.98;99884.44;4980738;28;20310;-95
2022/10/14 12:15:51;;;;;;;;;;;;;;;20.93;41.32;99884.31;4953197;28;19922;-92
2022/10/14 12:18:22;;;;;;;;;;;;;;;20.89;41.55;99883.59;4954658;29;19937;-94
2022/10/14 12:21:15;;;;;;;;;;;;;;;21.18;42.09;99888.28;4958580;28;19974;-92
2022/10/14 12:23:57;;;;;;;;;;;;;;;21.16;40.64;99883.03;4973986;28;19918;-96
2022/10/14 12:26:24;;;;;;;;;;;;;;;20.57;41.90;99880.84;4990331;28;20362;-95
2022/10/14 12:28:50;;;;;;;;;;;;;;;20.67;42.43;99883.06;4955814;28;19914;-95
2022/10/14 12:31:22;;;;;;;;;;;;;;;20.55;40.63;99882.72;4971399;28;19914;-95
2022/10/14 12:37:21;;;;;;;;;;;;;;;20.61;41.98;99878.84;4957618;29;19917;-92
2022/10/14 12:43:10;;;;;;;;;;;;;;;21.18;41.31;99877.56;4957373;29;19921;-91
2022/10/14 12:55:08;;;;;;;;;;;;;;;20.93;39.17;99862.88;4957542;29;19921;-95
2022/10/14 12:57:35;;;;;;;;;;;;;;;21.10;39.26;99859.22;4971198;28;20300;-93
2022/10/14 13:00:06;;;;;;;;;;;;;;;21.07;40.24;99857.59;4955827;29;19919;-93
2022/10/14 13:02:34;;;;;;;;;;;;;;;20.85;39.71;99849.91;4955176;29;19918;-92
2022/10/14 13:05:05;;;;;;;;;;;;;;;21.21;38.68;99850.56;4956151;29;19922;-94
2022/10/14 13:08:06;;;;;;;;;;;;;;;20.99;39.69;99853.59;4956848;29;19918;-93
2022/10/14 13:10:38;;;;;;;;;;;;;;;20.94;40.46;99853.88;4954888;28;20049;-92
2022/10/14 13:13:22;;;;;;;;;;;;;;;21.02;40.63;99851.63;4954964;29;20049;-92
2022/10/14 13:15:51;;;;;;;;;;;;;;;21.17;39.55;99849.03;4954760;29;19919;-91
2022/10/14 13:18:42;;;;;;;;;;;;;;;20.70;41.35;99850.75;4956641;29;20377;-91
2022/10/14 13:21:08;;;;;;;;;;;;;;;20.70;40.94;99850.75;4954734;29;19914;-90
2022/10/14 13:23:49;;;;;;;;;;;;;;;20.60;41.66;99849.47;4955780;29;20023;-89
2022/10/14 13:26:37;;;;;;;;;;;;;;;20.58;41.54;99847.72;4955879;29;19914;-89
2022/10/14 13:29:09;;;;;;;;;;;;;;;20.45;41.18;99835.06;4952562;29;19929;-89